createdAt,value
2018-07-19T00:01:03.353Z,90.60
2018-07-19T00:03:32.089Z,90.70
2018-07-19T00:06:00.831Z,90.50
2018-07-19T00:08:29.614Z,90.30
2018-07-19T00:10:58.342Z,90.40
2018-07-19T00:13:27.068Z,90.40
2018-07-19T00:15:55.716Z,90.40
2018-07-19T00:18:26.941Z,90.60
2018-07-19T00:20:57.558Z,90.70
2018-07-19T00:23:26.991Z,90.80
2018-07-19T00:25:56.821Z,90.90
2018-07-19T00:28:25.943Z,90.90
2018-07-19T00:30:57.575Z,90.60
2018-07-19T00:33:26.303Z,90.60
2018-07-19T00:35:55.073Z,91.20
2018-07-19T00:38:23.808Z,91.00
2018-07-19T00:40:52.558Z,90.70
2018-07-19T00:43:21.281Z,90.70
2018-07-19T00:45:50.044Z,91.00
2018-07-19T00:48:18.743Z,90.70
2018-07-19T00:50:47.480Z,90.90
2018-07-19T00:53:16.158Z,91.00
2018-07-19T00:55:45.027Z,91.10
2018-07-19T00:58:13.695Z,91.20
2018-07-19T01:00:42.374Z,91.30
2018-07-19T01:03:11.095Z,91.60
2018-07-19T01:05:39.759Z,91.70
2018-07-19T01:08:08.481Z,91.70
2018-07-19T01:10:40.101Z,91.60
2018-07-19T01:13:08.819Z,91.40
2018-07-19T01:15:37.527Z,91.50
2018-07-19T01:18:06.302Z,91.60
2018-07-19T01:20:34.966Z,91.70
2018-07-19T01:23:03.677Z,91.70
2018-07-19T01:25:32.439Z,91.70
2018-07-19T01:28:01.206Z,91.70
2018-07-19T01:30:29.936Z,91.50
2018-07-19T01:32:58.665Z,91.80
2018-07-19T01:35:27.398Z,91.80
2018-07-19T01:37:56.132Z,91.90
2018-07-19T01:40:24.844Z,91.50
2018-07-19T01:42:53.498Z,91.40
2018-07-19T01:45:22.176Z,91.40
2018-07-19T01:47:50.843Z,91.70
2018-07-19T01:50:19.669Z,91.80
2018-07-19T01:52:48.343Z,91.50
2018-07-19T01:55:17.074Z,91.30
2018-07-19T01:57:45.798Z,91.50
2018-07-19T02:00:14.569Z,91.40
2018-07-19T02:02:43.199Z,91.60
2018-07-19T02:05:11.958Z,91.60
2018-07-19T02:07:40.651Z,91.80
2018-07-19T02:10:09.397Z,91.80
2018-07-19T02:12:38.109Z,91.90
2018-07-19T02:15:06.959Z,92.10
2018-07-19T02:17:35.671Z,92.40
2018-07-19T02:20:04.427Z,92.40
2018-07-19T02:22:33.162Z,92.40
2018-07-19T02:25:01.835Z,92.40
2018-07-19T02:29:58.837Z,92.60
2018-07-19T02:32:27.566Z,92.30
2018-07-19T02:37:24.574Z,92.40
2018-07-19T02:39:53.285Z,92.20
2018-07-19T02:42:22.047Z,92.40
2018-07-19T02:44:50.760Z,92.50
2018-07-19T02:47:19.507Z,92.20
2018-07-19T02:49:48.220Z,92.10
2018-07-19T02:52:16.920Z,92.00
2018-07-19T02:54:45.712Z,92.00
2018-07-19T02:57:14.374Z,92.10
2018-07-19T02:59:43.126Z,92.20
2018-07-19T03:02:12.074Z,92.30
2018-07-19T03:04:40.791Z,92.40
2018-07-19T03:07:09.475Z,92.10
2018-07-19T03:09:38.160Z,91.90
2018-07-19T03:12:06.946Z,92.00
2018-07-19T03:14:35.754Z,92.00
2018-07-19T03:17:04.511Z,92.10
2018-07-19T03:19:33.224Z,92.10
2018-07-19T03:22:02.060Z,91.90
2018-07-19T03:24:30.802Z,92.00
2018-07-19T03:26:59.488Z,92.10
2018-07-19T03:29:28.202Z,91.90
2018-07-19T03:31:56.931Z,91.90
2018-07-19T03:34:25.647Z,92.40
2018-07-19T03:36:54.346Z,92.30
2018-07-19T03:39:23.039Z,92.30
2018-07-19T03:41:51.739Z,92.00
2018-07-19T03:44:20.976Z,92.10
2018-07-19T03:46:49.653Z,92.20
2018-07-19T03:49:18.406Z,92.20
2018-07-19T03:51:47.125Z,92.20
2018-07-19T03:54:15.825Z,92.50
2018-07-19T03:56:44.611Z,92.80
2018-07-19T03:59:13.329Z,93.10
2018-07-19T04:01:42.075Z,92.80
2018-07-19T04:04:10.764Z,92.70
2018-07-19T04:06:39.485Z,92.80
2018-07-19T04:09:08.923Z,92.70
2018-07-19T04:11:37.637Z,92.60
2018-07-19T04:14:06.629Z,92.60
2018-07-19T04:16:35.393Z,92.40
2018-07-19T04:19:04.111Z,92.30
2018-07-19T04:21:32.854Z,92.20
2018-07-19T04:24:01.548Z,92.10
2018-07-19T04:26:30.235Z,92.40
2018-07-19T04:28:58.951Z,92.30
2018-07-19T04:31:27.680Z,92.40
2018-07-19T04:33:56.393Z,92.30
2018-07-19T04:36:25.100Z,92.20
2018-07-19T04:38:53.797Z,92.20
2018-07-19T04:41:22.446Z,92.20
2018-07-19T04:43:51.158Z,92.30
2018-07-19T04:46:20.262Z,92.20
2018-07-19T04:48:48.960Z,92.20
2018-07-19T04:51:17.652Z,92.30
2018-07-19T04:53:46.409Z,92.50
2018-07-19T04:56:15.095Z,92.00
2018-07-19T04:58:43.850Z,92.20
2018-07-19T05:01:12.528Z,92.40
2018-07-19T05:03:41.233Z,92.70
2018-07-19T05:06:09.880Z,92.80
2018-07-19T05:08:38.887Z,92.60
2018-07-19T05:11:07.568Z,92.40
2018-07-19T05:13:36.288Z,92.50
2018-07-19T05:16:05.046Z,92.60
2018-07-19T05:18:33.741Z,92.40
2018-07-19T05:21:02.509Z,92.30
2018-07-19T05:23:31.207Z,91.80
2018-07-19T05:25:59.937Z,91.50
2018-07-19T05:28:31.457Z,91.00
2018-07-19T05:31:00.186Z,89.80
2018-07-19T05:33:28.879Z,84.20
2018-07-19T05:35:57.614Z,83.00
2018-07-19T05:38:26.304Z,79.30
2018-07-19T05:40:55.072Z,77.90
2018-07-19T05:43:23.753Z,74.30
2018-07-19T05:45:52.510Z,71.20
2018-07-19T05:48:21.255Z,67.90
2018-07-19T05:50:49.925Z,67.40
2018-07-19T05:55:46.949Z,66.20
2018-07-19T05:58:15.719Z,63.50
2018-07-19T06:00:44.385Z,59.40
2018-07-19T06:03:13.173Z,59.90
2018-07-19T06:05:42.075Z,56.10
2018-07-19T06:08:10.754Z,55.50
2018-07-19T06:10:39.486Z,55.70
2018-07-19T06:13:08.191Z,55.30
2018-07-19T06:18:05.376Z,54.10
2018-07-19T06:20:34.178Z,52.80
2018-07-19T06:23:02.906Z,53.10
2018-07-19T06:25:31.661Z,54.60
2018-07-19T06:28:00.352Z,54.80
2018-07-19T06:30:29.166Z,54.90
2018-07-19T06:32:57.885Z,54.40
2018-07-19T06:35:26.569Z,54.20
2018-07-19T06:37:55.312Z,54.20
2018-07-19T06:40:24.033Z,55.40
2018-07-19T06:42:52.793Z,54.70
2018-07-19T06:45:21.511Z,54.40
2018-07-19T06:52:47.466Z,54.80
2018-07-19T06:55:16.185Z,56.60
2018-07-19T06:57:44.895Z,55.10
2018-07-19T07:00:13.711Z,55.50
2018-07-19T07:02:42.420Z,56.00
2018-07-19T07:05:11.169Z,55.00
2018-07-19T07:07:39.876Z,52.70
2018-07-19T07:10:08.574Z,52.70
2018-07-19T07:12:37.327Z,52.20
2018-07-19T07:15:07.788Z,50.00
2018-07-19T07:17:36.542Z,47.30
2018-07-19T07:20:05.619Z,47.30
2018-07-19T07:22:34.321Z,46.40
2018-07-19T07:25:03.048Z,44.60
2018-07-19T07:27:31.840Z,45.00
2018-07-19T07:30:00.631Z,41.30
2018-07-19T07:32:29.349Z,40.20
2018-07-19T07:34:58.255Z,38.40
2018-07-19T07:37:27.102Z,38.10
2018-07-19T07:39:55.869Z,38.80
2018-07-19T07:42:24.811Z,39.80
2018-07-19T07:44:53.583Z,37.10
2018-07-19T07:47:22.464Z,37.20
2018-07-19T07:49:51.303Z,36.30
2018-07-19T07:52:20.033Z,35.80
2018-07-19T07:54:48.856Z,37.00
2018-07-19T07:57:17.776Z,36.80
2018-07-19T07:59:46.700Z,36.80
2018-07-19T08:02:15.430Z,35.70
2018-07-19T08:04:44.272Z,36.50
2018-07-19T08:07:13.441Z,34.20
2018-07-19T08:09:42.180Z,33.80
2018-07-19T08:12:11.001Z,33.70
2018-07-19T08:14:39.802Z,33.20
2018-07-19T08:17:08.588Z,32.40
2018-07-19T08:19:37.386Z,32.40
2018-07-19T08:22:06.182Z,33.60
2018-07-19T08:24:35.033Z,32.00
2018-07-19T08:27:03.861Z,33.30
2018-07-19T08:29:32.587Z,32.70
2018-07-19T08:32:01.274Z,32.30
2018-07-19T08:34:30.036Z,33.90
2018-07-19T08:36:58.735Z,30.90
2018-07-19T08:39:27.424Z,29.50
2018-07-19T08:41:56.213Z,30.90
2018-07-19T08:44:24.901Z,29.10
2018-07-19T08:46:53.630Z,29.60
2018-07-19T08:49:22.346Z,29.90
2018-07-19T08:51:51.084Z,30.40
2018-07-19T08:54:19.838Z,31.90
2018-07-19T08:56:48.646Z,30.50
2018-07-19T08:59:17.331Z,31.10
2018-07-19T09:01:46.079Z,29.90
2018-07-19T09:04:14.825Z,29.90
2018-07-19T09:06:43.543Z,31.10
2018-07-19T09:09:12.251Z,30.80
2018-07-19T09:11:41.037Z,31.60
2018-07-19T09:14:09.832Z,32.70
2018-07-19T09:16:38.626Z,30.30
2018-07-19T09:19:07.346Z,29.90
2018-07-19T09:21:36.099Z,29.10
2018-07-19T09:24:04.793Z,29.80
2018-07-19T09:26:33.569Z,28.80
2018-07-19T09:29:02.307Z,28.00
2018-07-19T09:31:31.056Z,27.70
2018-07-19T09:33:59.764Z,28.80
2018-07-19T09:36:28.468Z,30.40
2018-07-19T09:38:57.197Z,28.30
2018-07-19T09:41:25.868Z,27.90
2018-07-19T09:43:54.599Z,28.70
2018-07-19T09:46:26.325Z,29.30
2018-07-19T09:48:55.091Z,29.80
2018-07-19T09:51:23.761Z,27.80
2018-07-19T09:53:52.450Z,28.10
2018-07-19T09:56:21.723Z,27.30
2018-07-19T09:58:50.447Z,28.00
2018-07-19T10:01:20.488Z,27.20
2018-07-19T10:03:50.738Z,27.00
2018-07-19T10:06:19.808Z,25.90
2018-07-19T10:08:48.552Z,26.40
2018-07-19T10:11:17.272Z,25.50
2018-07-19T10:13:46.703Z,26.00
2018-07-19T10:16:15.440Z,25.80
2018-07-19T10:18:44.366Z,26.80
2018-07-19T10:21:13.100Z,27.20
2018-07-19T10:23:41.847Z,28.20
2018-07-19T10:26:10.573Z,29.30
2018-07-19T10:28:39.244Z,29.80
2018-07-19T10:31:07.990Z,29.80
2018-07-19T10:33:36.702Z,30.70
2018-07-19T10:36:05.430Z,32.00
2018-07-19T10:38:34.236Z,33.60
2018-07-19T10:41:02.919Z,32.20
2018-07-19T10:43:31.681Z,32.60
2018-07-19T10:46:00.422Z,32.70
2018-07-19T10:48:29.091Z,32.20
2018-07-19T10:50:57.774Z,29.80
2018-07-19T10:53:26.444Z,29.20
2018-07-19T10:55:55.114Z,28.70
2018-07-19T10:58:23.853Z,28.70
2018-07-19T11:00:52.562Z,27.80
2018-07-19T11:03:21.263Z,28.80
2018-07-19T11:05:49.966Z,27.50
2018-07-19T11:08:18.620Z,27.40
2018-07-19T11:10:47.397Z,28.70
2018-07-19T11:13:16.131Z,28.70
2018-07-19T11:15:44.938Z,27.60
2018-07-19T11:18:13.672Z,27.70
2018-07-19T11:20:42.369Z,28.30
2018-07-19T11:23:11.094Z,28.50
2018-07-19T11:25:39.727Z,28.50
2018-07-19T11:28:08.484Z,29.10
2018-07-19T11:30:37.145Z,29.80
2018-07-19T11:33:05.985Z,29.00
2018-07-19T11:35:34.648Z,29.30
2018-07-19T11:38:03.392Z,29.80
2018-07-19T11:40:32.091Z,29.10
2018-07-19T11:43:00.785Z,30.70
2018-07-19T11:45:29.453Z,29.90
2018-07-19T11:47:58.151Z,29.00
2018-07-19T11:50:28.911Z,29.10
2018-07-19T11:52:57.616Z,28.80
2018-07-19T11:55:26.288Z,29.00
2018-07-19T11:57:55.035Z,29.70
2018-07-19T12:00:23.715Z,29.90
2018-07-19T12:02:52.495Z,29.80
2018-07-19T12:05:21.147Z,29.50
2018-07-19T12:07:49.839Z,30.40
2018-07-19T12:10:18.538Z,30.00
2018-07-19T12:15:15.629Z,29.60
2018-07-19T12:17:44.432Z,29.20
2018-07-19T12:20:13.100Z,29.40
2018-07-19T12:22:41.780Z,29.60
2018-07-19T12:25:10.527Z,29.10
2018-07-19T12:27:39.197Z,29.70
2018-07-19T12:30:07.970Z,29.60
2018-07-19T12:32:36.705Z,30.00
2018-07-19T12:37:33.715Z,29.90
2018-07-19T12:40:02.371Z,29.60
2018-07-19T12:42:31.132Z,30.10
2018-07-19T12:44:59.829Z,29.90
2018-07-19T12:47:28.529Z,30.40
2018-07-19T12:52:25.588Z,30.70
2018-07-19T12:54:54.244Z,29.90
2018-07-19T12:57:22.969Z,30.00
2018-07-19T12:59:51.632Z,30.30
2018-07-19T13:02:20.344Z,29.80
2018-07-19T13:04:49.044Z,30.10
2018-07-19T13:07:17.740Z,30.10
2018-07-19T13:09:46.590Z,31.40
2018-07-19T13:14:43.591Z,30.50
2018-07-19T13:17:12.283Z,29.90
2018-07-19T13:19:41.004Z,29.80
2018-07-19T13:22:09.754Z,29.90
2018-07-19T13:24:38.445Z,30.50
2018-07-19T13:27:07.121Z,29.60
2018-07-19T13:29:35.883Z,30.30
2018-07-19T13:32:04.589Z,30.00
2018-07-19T13:34:33.308Z,29.60
2018-07-19T13:37:02.028Z,29.90
2018-07-19T13:39:30.729Z,30.00
2018-07-19T13:41:59.457Z,29.70
2018-07-19T13:44:28.157Z,30.20
2018-07-19T13:46:56.857Z,30.30
2018-07-19T13:49:25.512Z,30.30
2018-07-19T13:51:54.234Z,31.30
2018-07-19T13:54:34.025Z,31.10
2018-07-19T13:57:02.719Z,30.50
2018-07-19T13:59:31.377Z,31.20
2018-07-19T14:02:00.089Z,31.10
2018-07-19T14:04:28.746Z,30.30
2018-07-19T14:09:25.811Z,29.90
2018-07-19T14:11:54.469Z,29.40
2018-07-19T14:14:23.196Z,29.40
2018-07-19T14:16:52.003Z,29.10
2018-07-19T14:19:20.744Z,29.20
2018-07-19T14:21:49.510Z,29.40
2018-07-19T14:24:18.280Z,30.00
2018-07-19T14:29:15.296Z,30.00
2018-07-19T14:31:44.021Z,29.30
2018-07-19T14:34:12.745Z,29.20
2018-07-19T14:36:41.426Z,29.70
2018-07-19T14:39:12.289Z,29.30
2018-07-19T14:41:41.027Z,29.30
2018-07-19T14:44:10.079Z,29.00
2018-07-19T14:46:38.890Z,29.50
2018-07-19T14:49:07.704Z,28.90
2018-07-19T14:51:36.450Z,28.50
2018-07-19T14:54:05.204Z,29.00
2018-07-19T14:56:34.012Z,29.60
2018-07-19T14:59:02.731Z,29.30
2018-07-19T15:01:31.474Z,29.10
2018-07-19T15:04:00.163Z,30.30
2018-07-19T15:06:29.036Z,29.90
2018-07-19T15:08:57.806Z,31.00
2018-07-19T15:11:26.887Z,30.80
2018-07-19T15:13:55.727Z,31.60
2018-07-19T15:16:24.454Z,30.20
2018-07-19T15:18:53.122Z,30.60
2018-07-19T15:21:21.838Z,30.80
2018-07-19T15:23:50.490Z,31.00
2018-07-19T15:26:19.277Z,31.00
2018-07-19T15:28:48.089Z,30.10
2018-07-19T15:31:16.986Z,30.00
2018-07-19T15:33:45.815Z,30.00
2018-07-19T15:36:14.506Z,29.60
2018-07-19T15:38:43.241Z,30.90
2018-07-19T15:41:11.944Z,28.90
2018-07-19T15:43:40.726Z,28.80
2018-07-19T15:46:09.448Z,28.80
2018-07-19T15:48:38.145Z,28.80
2018-07-19T15:51:06.780Z,28.80
2018-07-19T15:53:35.490Z,29.00
2018-07-19T15:56:04.280Z,28.10
2018-07-19T15:58:32.944Z,28.90
2018-07-19T16:01:01.981Z,28.70
2018-07-19T16:05:59.306Z,28.50
2018-07-19T16:08:28.020Z,28.60
2018-07-19T16:10:56.745Z,28.90
2018-07-19T16:13:25.428Z,28.20
2018-07-19T16:15:54.151Z,27.90
2018-07-19T16:18:22.854Z,28.20
2018-07-19T16:20:51.579Z,28.20
2018-07-19T16:23:20.247Z,28.70
2018-07-19T16:25:48.999Z,30.40
2018-07-19T16:28:17.687Z,29.70
2018-07-19T16:30:46.387Z,30.30
2018-07-19T16:33:15.101Z,29.80
2018-07-19T16:35:43.779Z,28.60
2018-07-19T16:38:12.532Z,29.40
2018-07-19T16:40:41.231Z,29.70
2018-07-19T16:43:09.961Z,29.20
2018-07-19T16:45:38.654Z,29.60
2018-07-19T16:48:07.322Z,29.70
2018-07-19T16:50:36.037Z,29.50
2018-07-19T16:53:04.712Z,29.50
2018-07-19T16:55:33.436Z,30.50
2018-07-19T16:58:02.158Z,30.80
2018-07-19T17:00:30.834Z,30.80
2018-07-19T17:02:59.478Z,30.80
2018-07-19T17:05:28.190Z,31.90
2018-07-19T17:10:29.020Z,30.40
2018-07-19T17:12:57.823Z,30.60
2018-07-19T17:15:26.489Z,31.00
2018-07-19T17:17:55.235Z,32.70
2018-07-19T17:20:23.897Z,33.70
2018-07-19T17:22:52.643Z,34.70
2018-07-19T17:25:21.426Z,35.00
2018-07-19T17:27:50.108Z,34.70
2018-07-19T17:30:18.864Z,32.80
2018-07-19T17:32:47.507Z,33.10
2018-07-19T17:35:16.239Z,34.40
2018-07-19T17:37:45.090Z,34.20
2018-07-19T17:40:13.804Z,36.00
2018-07-19T17:42:42.572Z,35.40
2018-07-19T17:45:11.244Z,35.60
2018-07-19T17:47:39.904Z,35.70
2018-07-19T17:50:09.093Z,33.90
2018-07-19T17:52:37.752Z,36.50
2018-07-19T17:55:06.463Z,36.80
2018-07-19T17:57:35.152Z,37.10
2018-07-19T18:00:03.993Z,37.90
2018-07-19T18:02:32.685Z,39.10
2018-07-19T18:05:01.562Z,39.40
2018-07-19T18:07:30.256Z,40.50
2018-07-19T18:09:58.929Z,40.60
2018-07-19T18:12:27.657Z,41.60
2018-07-19T18:14:56.370Z,42.40
2018-07-19T18:17:25.026Z,43.20
2018-07-19T18:19:53.749Z,43.90
2018-07-19T18:22:22.392Z,44.90
2018-07-19T18:24:51.082Z,45.70
2018-07-19T18:27:19.755Z,47.00
2018-07-19T18:29:48.479Z,47.30
2018-07-19T18:32:17.159Z,48.60
2018-07-19T18:34:46.153Z,48.40
2018-07-19T18:37:14.890Z,48.60
2018-07-19T18:39:43.586Z,49.30
2018-07-19T18:42:12.262Z,48.70
2018-07-19T18:44:40.974Z,50.20
2018-07-19T18:47:09.682Z,50.00
2018-07-19T18:49:38.341Z,50.30
2018-07-19T18:52:07.075Z,50.70
2018-07-19T18:54:35.767Z,51.80
2018-07-19T18:57:04.635Z,51.70
2018-07-19T18:59:33.329Z,52.80
2018-07-19T19:02:02.035Z,53.80
2018-07-19T19:04:31.047Z,54.50
2018-07-19T19:06:59.810Z,55.40
2018-07-19T19:09:28.504Z,56.00
2018-07-19T19:11:57.188Z,56.60
2018-07-19T19:14:25.883Z,56.50
2018-07-19T19:16:54.611Z,56.60
2018-07-19T19:19:23.432Z,56.90
2018-07-19T19:21:52.326Z,57.80
2018-07-19T19:24:20.960Z,57.80
2018-07-19T19:26:49.667Z,58.40
2018-07-19T19:29:18.559Z,58.50
2018-07-19T19:31:47.289Z,58.90
2018-07-19T19:34:16.065Z,59.40
2018-07-19T19:36:44.879Z,59.80
2018-07-19T19:39:14.059Z,60.30
2018-07-19T19:41:43.165Z,60.50
2018-07-19T19:44:12.414Z,61.20
2018-07-19T19:46:41.151Z,61.60
2018-07-19T19:49:09.840Z,62.50
2018-07-19T19:51:38.590Z,62.90
2018-07-19T19:54:07.307Z,63.70
2018-07-19T19:56:36.030Z,63.70
2018-07-19T19:59:04.769Z,64.30
2018-07-19T20:01:33.654Z,65.10
2018-07-19T20:04:02.291Z,66.40
2018-07-19T20:06:31.000Z,67.00
2018-07-19T20:08:59.725Z,68.00
2018-07-19T20:11:28.434Z,68.80
2018-07-19T20:13:57.133Z,69.90
2018-07-19T20:16:25.811Z,71.50
2018-07-19T20:18:54.508Z,72.30
2018-07-19T20:21:23.167Z,73.30
2018-07-19T20:23:51.854Z,73.60
2018-07-19T20:26:20.583Z,74.00
2018-07-19T20:28:49.316Z,73.00
2018-07-19T20:31:18.012Z,73.00
2018-07-19T20:33:46.782Z,73.30
2018-07-19T20:36:15.444Z,73.80
2018-07-19T20:38:44.160Z,74.40
2018-07-19T20:41:12.881Z,74.80
2018-07-19T20:43:41.592Z,75.20
2018-07-19T20:46:10.255Z,75.70
2018-07-19T20:48:38.977Z,76.60
2018-07-19T20:51:07.683Z,77.10
2018-07-19T20:53:36.411Z,78.50
2018-07-19T20:56:05.231Z,78.80
2018-07-19T20:58:33.943Z,79.60
2018-07-19T21:01:02.610Z,80.40
2018-07-19T21:03:31.275Z,80.80
2018-07-19T21:06:00.024Z,80.60
2018-07-19T21:08:28.730Z,80.80
2018-07-19T21:10:57.445Z,81.60
2018-07-19T21:13:26.177Z,81.20
2018-07-19T21:15:54.875Z,80.10
2018-07-19T21:18:23.640Z,78.10
2018-07-19T21:20:52.338Z,74.60
2018-07-19T21:23:21.020Z,72.70
2018-07-19T21:25:50.126Z,70.90
2018-07-19T21:28:19.087Z,71.40
2018-07-19T21:30:47.834Z,71.30
2018-07-19T21:33:16.499Z,72.10
2018-07-19T21:35:45.578Z,72.80
2018-07-19T21:38:14.357Z,72.60
2018-07-19T21:40:43.171Z,71.30
2018-07-19T21:43:12.165Z,68.60
2018-07-19T21:45:40.840Z,67.10
2018-07-19T21:48:09.557Z,66.40
2018-07-19T21:50:38.285Z,66.40
2018-07-19T21:53:07.000Z,66.90
2018-07-19T21:55:35.665Z,68.60
2018-07-19T21:58:04.454Z,71.10
2018-07-19T22:00:33.175Z,71.10
2018-07-19T22:03:01.986Z,71.90
2018-07-19T22:05:30.688Z,73.20
2018-07-19T22:07:59.360Z,74.30
2018-07-19T22:10:28.079Z,75.10
2018-07-19T22:12:56.812Z,76.20
2018-07-19T22:15:25.460Z,76.00
2018-07-19T22:17:54.199Z,76.80
2018-07-19T22:20:22.900Z,77.80
2018-07-19T22:22:51.579Z,78.30
2018-07-19T22:25:20.284Z,79.00
2018-07-19T22:27:48.958Z,79.10
2018-07-19T22:30:17.707Z,80.10
2018-07-19T22:32:46.482Z,80.20
2018-07-19T22:35:15.182Z,80.10
2018-07-19T22:37:43.900Z,79.50
2018-07-19T22:40:12.553Z,80.00
2018-07-19T22:42:41.240Z,80.20
2018-07-19T22:45:09.889Z,81.30
